Albion, Arkansas
Current Conditions -  °F | °C
As of 8:56 PM on Friday 28 Nov 2014 (Local Time) from KSRC Reporting Station
Clear Clear  
Wind Chill:   Ceiling: Unl
Heat Index:   Visibility: 10mi
Dew Point:   Wind: 7mph
Humidity: 73%   Direction: 200°SSW
Pressure: 30.08"   Gusts: NA
Location:  35.2662°N, 91.8491°W
Report Text: KSRC 290256Z AUTO 20006KT 10SM CLR 08/03 A3008 RMK AO2 SLP193 T00780033 56009 TSNO
Loading
Personal Weather Stations






























Interactive Weather Map New forecast layout! Learn more

10-Day Weather Forecast

Advertisements
Track Severe Weather on mobile